sensor_id;sensor_type;location;lat;lon;timestamp;P1;durP1;ratioP1;P2;durP2;ratioP2
12663;SDS011;6396;58.490;15.528;2023-02-01T00:00:56;6.27;;;3.10;;
12663;SDS011;6396;58.490;15.528;2023-02-01T00:03:23;5.83;;;3.50;;
12663;SDS011;6396;58.490;15.528;2023-02-01T00:05:54;6.43;;;3.27;;
12663;SDS011;6396;58.490;15.528;2023-02-01T00:08:22;5.13;;;2.90;;
12663;SDS011;6396;58.490;15.528;2023-02-01T00:10:58;8.53;;;3.40;;
12663;SDS011;6396;58.490;15.528;2023-02-01T00:13:27;6.07;;;2.80;;
12663;SDS011;6396;58.490;15.528;2023-02-01T00:15:55;4.50;;;2.77;;
12663;SDS011;6396;58.490;15.528;2023-02-01T00:18:29;7.20;;;2.97;;
12663;SDS011;6396;58.490;15.528;2023-02-01T00:20:56;5.33;;;2.80;;
12663;SDS011;6396;58.490;15.528;2023-02-01T00:23:23;4.20;;;3.23;;
12663;SDS011;6396;58.490;15.528;2023-02-01T00:25:51;5.80;;;2.80;;
12663;SDS011;6396;58.490;15.528;2023-02-01T00:28:20;6.37;;;3.37;;
12663;SDS011;6396;58.490;15.528;2023-02-01T00:30:47;8.93;;;3.30;;
12663;SDS011;6396;58.490;15.528;2023-02-01T00:33:23;5.33;;;2.90;;
12663;SDS011;6396;58.490;15.528;2023-02-01T00:35:50;5.20;;;3.17;;
12663;SDS011;6396;58.490;15.528;2023-02-01T00:38:17;4.10;;;3.03;;
12663;SDS011;6396;58.490;15.528;2023-02-01T00:40:44;6.50;;;3.20;;
12663;SDS011;6396;58.490;15.528;2023-02-01T00:43:11;6.37;;;3.37;;
12663;SDS011;6396;58.490;15.528;2023-02-01T00:48:52;3.63;;;2.90;;
12663;SDS011;6396;58.490;15.528;2023-02-01T00:51:21;3.67;;;3.10;;
12663;SDS011;6396;58.490;15.528;2023-02-01T00:53:50;4.23;;;3.03;;
12663;SDS011;6396;58.490;15.528;2023-02-01T00:56:17;6.13;;;3.60;;
12663;SDS011;6396;58.490;15.528;2023-02-01T00:58:44;3.93;;;3.10;;
12663;SDS011;6396;58.490;15.528;2023-02-01T01:01:12;5.57;;;2.97;;
12663;SDS011;6396;58.490;15.528;2023-02-01T01:03:42;4.60;;;2.90;;
12663;SDS011;6396;58.490;15.528;2023-02-01T01:06:12;4.53;;;3.17;;
12663;SDS011;6396;58.490;15.528;2023-02-01T01:08:40;2.97;;;2.67;;
12663;SDS011;6396;58.490;15.528;2023-02-01T01:11:08;2.50;;;2.30;;
12663;SDS011;6396;58.490;15.528;2023-02-01T01:13:36;2.80;;;2.10;;
12663;SDS011;6396;58.490;15.528;2023-02-01T01:16:04;3.43;;;2.53;;
12663;SDS011;6396;58.490;15.528;2023-02-01T01:18:33;2.53;;;2.33;;
12663;SDS011;6396;58.490;15.528;2023-02-01T01:21:03;2.27;;;2.07;;
12663;SDS011;6396;58.490;15.528;2023-02-01T01:23:31;2.27;;;2.07;;
12663;SDS011;6396;58.490;15.528;2023-02-01T01:25:59;2.53;;;2.33;;
12663;SDS011;6396;58.490;15.528;2023-02-01T01:28:26;2.23;;;2.03;;
12663;SDS011;6396;58.490;15.528;2023-02-01T01:30:54;2.20;;;2.00;;
12663;SDS011;6396;58.490;15.528;2023-02-01T01:33:21;1.77;;;1.67;;
12663;SDS011;6396;58.490;15.528;2023-02-01T01:35:48;3.27;;;2.00;;
12663;SDS011;6396;58.490;15.528;2023-02-01T02:35:06;4.97;;;1.57;;
12663;SDS011;6396;58.490;15.528;2023-02-01T02:37:45;1.77;;;1.50;;
12663;SDS011;6396;58.490;15.528;2023-02-01T02:40:31;1.60;;;1.50;;
12663;SDS011;6396;58.490;15.528;2023-02-01T02:43:19;1.63;;;1.40;;
12663;SDS011;6396;58.490;15.528;2023-02-01T02:46:08;1.73;;;1.40;;
12663;SDS011;6396;58.490;15.528;2023-02-01T02:49:02;3.37;;;1.40;;
12663;SDS011;6396;58.490;15.528;2023-02-01T02:51:38;2.40;;;1.37;;
12663;SDS011;6396;58.490;15.528;2023-02-01T02:54:28;2.17;;;1.13;;
12663;SDS011;6396;58.490;15.528;2023-02-01T03:01:06;2.70;;;1.43;;
12663;SDS011;6396;58.490;15.528;2023-02-01T03:04:27;3.17;;;1.50;;
12663;SDS011;6396;58.490;15.528;2023-02-01T03:10:50;1.87;;;1.37;;
12663;SDS011;6396;58.490;15.528;2023-02-01T03:20:43;3.47;;;1.80;;
12663;SDS011;6396;58.490;15.528;2023-02-01T03:24:04;2.87;;;1.67;;
12663;SDS011;6396;58.490;15.528;2023-02-01T03:27:01;2.40;;;1.40;;
12663;SDS011;6396;58.490;15.528;2023-02-01T03:29:49;2.87;;;1.60;;
12663;SDS011;6396;58.490;15.528;2023-02-01T03:32:32;3.43;;;1.87;;
12663;SDS011;6396;58.490;15.528;2023-02-01T03:39:13;3.93;;;1.60;;
12663;SDS011;6396;58.490;15.528;2023-02-01T03:45:33;2.53;;;1.40;;
12663;SDS011;6396;58.490;15.528;2023-02-01T03:48:07;4.23;;;1.53;;
12663;SDS011;6396;58.490;15.528;2023-02-01T03:50:37;5.47;;;1.80;;
12663;SDS011;6396;58.490;15.528;2023-02-01T03:53:10;3.00;;;1.40;;
12663;SDS011;6396;58.490;15.528;2023-02-01T03:55:43;2.67;;;1.47;;
12663;SDS011;6396;58.490;15.528;2023-02-01T03:58:11;4.33;;;1.80;;
12663;SDS011;6396;58.490;15.528;2023-02-01T04:00:42;2.67;;;1.40;;
12663;SDS011;6396;58.490;15.528;2023-02-01T04:03:13;3.03;;;1.30;;
12663;SDS011;6396;58.490;15.528;2023-02-01T04:05:40;2.67;;;1.40;;
12663;SDS011;6396;58.490;15.528;2023-02-01T04:08:09;3.30;;;1.43;;
12663;SDS011;6396;58.490;15.528;2023-02-01T04:10:36;5.13;;;1.73;;
12663;SDS011;6396;58.490;15.528;2023-02-01T04:13:03;3.23;;;2.20;;
12663;SDS011;6396;58.490;15.528;2023-02-01T04:15:30;2.53;;;1.50;;
12663;SDS011;6396;58.490;15.528;2023-02-01T04:17:58;3.40;;;1.30;;
12663;SDS011;6396;58.490;15.528;2023-02-01T04:20:25;3.53;;;1.60;;
12663;SDS011;6396;58.490;15.528;2023-02-01T04:22:52;1.47;;;1.37;;
12663;SDS011;6396;58.490;15.528;2023-02-01T04:25:19;5.10;;;1.73;;
12663;SDS011;6396;58.490;15.528;2023-02-01T04:27:46;3.83;;;1.30;;
12663;SDS011;6396;58.490;15.528;2023-02-01T04:30:13;2.80;;;1.30;;
12663;SDS011;6396;58.490;15.528;2023-02-01T04:32:41;3.57;;;1.90;;
12663;SDS011;6396;58.490;15.528;2023-02-01T04:35:10;4.10;;;1.87;;
12663;SDS011;6396;58.490;15.528;2023-02-01T04:37:36;3.73;;;1.90;;
12663;SDS011;6396;58.490;15.528;2023-02-01T04:40:04;2.37;;;1.73;;
12663;SDS011;6396;58.490;15.528;2023-02-01T04:42:32;3.10;;;1.50;;
12663;SDS011;6396;58.490;15.528;2023-02-01T04:44:59;4.13;;;1.70;;
12663;SDS011;6396;58.490;15.528;2023-02-01T04:47:25;3.37;;;1.30;;
12663;SDS011;6396;58.490;15.528;2023-02-01T04:49:53;3.53;;;1.50;;
12663;SDS011;6396;58.490;15.528;2023-02-01T05:01:06;5.67;;;1.47;;
12663;SDS011;6396;58.490;15.528;2023-02-01T05:03:48;3.50;;;1.60;;
12663;SDS011;6396;58.490;15.528;2023-02-01T05:06:25;3.33;;;1.70;;
12663;SDS011;6396;58.490;15.528;2023-02-01T05:08:57;4.10;;;1.40;;
12663;SDS011;6396;58.490;15.528;2023-02-01T05:11:40;3.30;;;1.30;;
12663;SDS011;6396;58.490;15.528;2023-02-01T05:14:31;3.87;;;1.47;;
12663;SDS011;6396;58.490;15.528;2023-02-01T05:17:31;3.93;;;1.70;;
12663;SDS011;6396;58.490;15.528;2023-02-01T05:20:38;4.80;;;1.80;;
12663;SDS011;6396;58.490;15.528;2023-02-01T05:23:50;4.37;;;1.40;;
12663;SDS011;6396;58.490;15.528;2023-02-01T05:30:22;4.47;;;1.50;;
12663;SDS011;6396;58.490;15.528;2023-02-01T05:33:00;3.20;;;1.80;;
12663;SDS011;6396;58.490;15.528;2023-02-01T05:35:50;3.93;;;1.63;;
12663;SDS011;6396;58.490;15.528;2023-02-01T05:38:28;4.33;;;1.27;;
12663;SDS011;6396;58.490;15.528;2023-02-01T05:41:00;4.47;;;1.30;;
12663;SDS011;6396;58.490;15.528;2023-02-01T05:43:27;2.50;;;1.80;;
12663;SDS011;6396;58.490;15.528;2023-02-01T05:45:56;3.27;;;1.50;;
12663;SDS011;6396;58.490;15.528;2023-02-01T05:48:23;3.27;;;1.67;;
12663;SDS011;6396;58.490;15.528;2023-02-01T05:50:50;4.13;;;1.60;;
12663;SDS011;6396;58.490;15.528;2023-02-01T05:53:26;4.43;;;1.60;;
12663;SDS011;6396;58.490;15.528;2023-02-01T06:00:09;4.07;;;1.50;;
12663;SDS011;6396;58.490;15.528;2023-02-01T06:02:38;3.80;;;1.40;;
12663;SDS011;6396;58.490;15.528;2023-02-01T06:05:06;5.07;;;1.57;;
12663;SDS011;6396;58.490;15.528;2023-02-01T06:07:35;4.77;;;1.70;;
12663;SDS011;6396;58.490;15.528;2023-02-01T06:10:34;6.53;;;2.03;;
12663;SDS011;6396;58.490;15.528;2023-02-01T06:13:09;4.70;;;1.60;;
12663;SDS011;6396;58.490;15.528;2023-02-01T06:15:36;5.40;;;1.57;;
12663;SDS011;6396;58.490;15.528;2023-02-01T06:18:06;4.50;;;1.53;;
12663;SDS011;6396;58.490;15.528;2023-02-01T06:20:40;5.13;;;1.47;;
12663;SDS011;6396;58.490;15.528;2023-02-01T06:23:08;5.13;;;2.00;;
12663;SDS011;6396;58.490;15.528;2023-02-01T06:25:46;2.90;;;1.40;;
12663;SDS011;6396;58.490;15.528;2023-02-01T06:28:18;4.80;;;1.70;;
12663;SDS011;6396;58.490;15.528;2023-02-01T06:30:45;5.93;;;2.00;;
12663;SDS011;6396;58.490;15.528;2023-02-01T06:33:14;6.07;;;1.80;;
12663;SDS011;6396;58.490;15.528;2023-02-01T06:35:41;5.73;;;1.90;;
12663;SDS011;6396;58.490;15.528;2023-02-01T06:38:09;4.83;;;1.80;;
12663;SDS011;6396;58.490;15.528;2023-02-01T06:40:36;3.30;;;1.60;;
12663;SDS011;6396;58.490;15.528;2023-02-01T06:43:04;4.43;;;1.63;;
12663;SDS011;6396;58.490;15.528;2023-02-01T06:45:40;8.63;;;2.73;;
12663;SDS011;6396;58.490;15.528;2023-02-01T06:48:18;4.00;;;1.90;;
12663;SDS011;6396;58.490;15.528;2023-02-01T06:50:45;6.80;;;1.97;;
12663;SDS011;6396;58.490;15.528;2023-02-01T06:53:12;5.60;;;1.80;;
12663;SDS011;6396;58.490;15.528;2023-02-01T06:55:41;5.60;;;2.33;;
12663;SDS011;6396;58.490;15.528;2023-02-01T06:58:27;6.07;;;1.60;;
12663;SDS011;6396;58.490;15.528;2023-02-01T07:00:56;4.70;;;1.73;;
12663;SDS011;6396;58.490;15.528;2023-02-01T07:03:26;5.00;;;1.93;;
12663;SDS011;6396;58.490;15.528;2023-02-01T07:06:03;6.90;;;2.10;;
12663;SDS011;6396;58.490;15.528;2023-02-01T07:11:43;5.57;;;2.20;;
12663;SDS011;6396;58.490;15.528;2023-02-01T07:17:26;7.77;;;2.00;;
12663;SDS011;6396;58.490;15.528;2023-02-01T07:19:56;4.97;;;1.97;;
12663;SDS011;6396;58.490;15.528;2023-02-01T07:22:25;7.07;;;3.07;;
12663;SDS011;6396;58.490;15.528;2023-02-01T07:24:53;4.40;;;2.30;;
12663;SDS011;6396;58.490;15.528;2023-02-01T07:27:20;4.87;;;2.20;;
12663;SDS011;6396;58.490;15.528;2023-02-01T07:29:49;6.07;;;2.07;;
12663;SDS011;6396;58.490;15.528;2023-02-01T07:32:19;4.73;;;2.13;;
12663;SDS011;6396;58.490;15.528;2023-02-01T07:37:52;5.20;;;2.13;;
12663;SDS011;6396;58.490;15.528;2023-02-01T07:40:35;5.43;;;2.10;;
12663;SDS011;6396;58.490;15.528;2023-02-01T07:43:19;5.17;;;1.97;;
12663;SDS011;6396;58.490;15.528;2023-02-01T07:45:50;7.93;;;2.30;;
12663;SDS011;6396;58.490;15.528;2023-02-01T07:48:28;7.17;;;2.13;;
12663;SDS011;6396;58.490;15.528;2023-02-01T07:51:04;4.63;;;2.17;;
12663;SDS011;6396;58.490;15.528;2023-02-01T07:53:39;6.63;;;2.30;;
12663;SDS011;6396;58.490;15.528;2023-02-01T07:56:13;6.50;;;2.60;;
12663;SDS011;6396;58.490;15.528;2023-02-01T07:58:42;5.07;;;2.57;;
12663;SDS011;6396;58.490;15.528;2023-02-01T08:01:14;5.83;;;2.67;;
12663;SDS011;6396;58.490;15.528;2023-02-01T08:03:53;7.80;;;2.67;;
12663;SDS011;6396;58.490;15.528;2023-02-01T08:06:39;6.90;;;2.37;;
12663;SDS011;6396;58.490;15.528;2023-02-01T08:09:07;9.30;;;2.50;;
12663;SDS011;6396;58.490;15.528;2023-02-01T08:11:37;9.80;;;2.73;;
12663;SDS011;6396;58.490;15.528;2023-02-01T08:14:05;10.43;;;2.73;;
12663;SDS011;6396;58.490;15.528;2023-02-01T08:16:32;9.73;;;2.57;;
12663;SDS011;6396;58.490;15.528;2023-02-01T08:19:02;5.43;;;2.00;;
12663;SDS011;6396;58.490;15.528;2023-02-01T08:21:30;6.17;;;2.20;;
12663;SDS011;6396;58.490;15.528;2023-02-01T08:24:05;7.87;;;2.90;;
12663;SDS011;6396;58.490;15.528;2023-02-01T08:26:35;9.80;;;3.10;;
12663;SDS011;6396;58.490;15.528;2023-02-01T08:29:03;10.83;;;2.97;;
12663;SDS011;6396;58.490;15.528;2023-02-01T08:31:35;6.93;;;2.67;;
12663;SDS011;6396;58.490;15.528;2023-02-01T08:34:05;8.37;;;2.77;;
12663;SDS011;6396;58.490;15.528;2023-02-01T08:36:35;10.97;;;3.33;;
12663;SDS011;6396;58.490;15.528;2023-02-01T08:39:05;8.37;;;2.90;;
12663;SDS011;6396;58.490;15.528;2023-02-01T08:41:34;6.77;;;2.57;;
12663;SDS011;6396;58.490;15.528;2023-02-01T08:44:02;7.13;;;2.80;;
12663;SDS011;6396;58.490;15.528;2023-02-01T08:46:31;9.27;;;2.80;;
12663;SDS011;6396;58.490;15.528;2023-02-01T08:48:59;6.50;;;2.70;;
12663;SDS011;6396;58.490;15.528;2023-02-01T08:51:26;5.60;;;2.57;;
12663;SDS011;6396;58.490;15.528;2023-02-01T08:53:54;6.37;;;2.87;;
12663;SDS011;6396;58.490;15.528;2023-02-01T08:56:27;6.93;;;2.60;;
12663;SDS011;6396;58.490;15.528;2023-02-01T08:58:56;4.83;;;2.70;;
12663;SDS011;6396;58.490;15.528;2023-02-01T09:01:27;9.87;;;2.73;;
12663;SDS011;6396;58.490;15.528;2023-02-01T09:07:21;9.40;;;3.20;;
12663;SDS011;6396;58.490;15.528;2023-02-01T09:09:50;8.40;;;3.40;;
12663;SDS011;6396;58.490;15.528;2023-02-01T09:12:30;7.50;;;3.20;;
12663;SDS011;6396;58.490;15.528;2023-02-01T09:14:58;9.57;;;3.37;;
12663;SDS011;6396;58.490;15.528;2023-02-01T09:17:28;10.70;;;3.83;;
12663;SDS011;6396;58.490;15.528;2023-02-01T09:19:57;11.30;;;3.40;;
12663;SDS011;6396;58.490;15.528;2023-02-01T09:22:38;8.23;;;3.17;;
12663;SDS011;6396;58.490;15.528;2023-02-01T09:25:09;9.33;;;3.20;;
12663;SDS011;6396;58.490;15.528;2023-02-01T09:27:41;10.50;;;3.80;;
12663;SDS011;6396;58.490;15.528;2023-02-01T09:30:09;9.73;;;3.37;;
12663;SDS011;6396;58.490;15.528;2023-02-01T09:32:55;11.70;;;3.33;;
12663;SDS011;6396;58.490;15.528;2023-02-01T09:35:27;8.37;;;3.53;;
12663;SDS011;6396;58.490;15.528;2023-02-01T09:38:00;7.70;;;3.40;;
12663;SDS011;6396;58.490;15.528;2023-02-01T09:40:36;9.67;;;3.20;;
12663;SDS011;6396;58.490;15.528;2023-02-01T09:43:28;13.33;;;3.83;;
12663;SDS011;6396;58.490;15.528;2023-02-01T09:46:09;8.07;;;3.30;;
12663;SDS011;6396;58.490;15.528;2023-02-01T09:49:02;9.30;;;3.70;;
12663;SDS011;6396;58.490;15.528;2023-02-01T09:51:45;8.97;;;4.40;;
12663;SDS011;6396;58.490;15.528;2023-02-01T09:54:15;10.33;;;3.87;;
12663;SDS011;6396;58.490;15.528;2023-02-01T09:56:46;9.13;;;4.30;;
12663;SDS011;6396;58.490;15.528;2023-02-01T09:59:26;7.67;;;3.97;;
12663;SDS011;6396;58.490;15.528;2023-02-01T10:02:00;8.97;;;3.90;;
12663;SDS011;6396;58.490;15.528;2023-02-01T10:04:29;11.57;;;3.43;;
12663;SDS011;6396;58.490;15.528;2023-02-01T10:07:07;11.57;;;3.43;;
12663;SDS011;6396;58.490;15.528;2023-02-01T10:09:52;10.07;;;3.37;;
12663;SDS011;6396;58.490;15.528;2023-02-01T10:15:40;6.53;;;2.73;;
12663;SDS011;6396;58.490;15.528;2023-02-01T10:18:23;8.20;;;3.27;;
12663;SDS011;6396;58.490;15.528;2023-02-01T10:21:05;12.80;;;3.37;;
12663;SDS011;6396;58.490;15.528;2023-02-01T10:23:52;8.83;;;3.00;;
12663;SDS011;6396;58.490;15.528;2023-02-01T10:26:30;9.80;;;2.83;;
12663;SDS011;6396;58.490;15.528;2023-02-01T10:29:02;13.50;;;3.57;;
12663;SDS011;6396;58.490;15.528;2023-02-01T10:31:34;9.33;;;3.03;;
12663;SDS011;6396;58.490;15.528;2023-02-01T10:34:07;11.30;;;2.70;;
12663;SDS011;6396;58.490;15.528;2023-02-01T10:36:48;9.87;;;3.00;;
12663;SDS011;6396;58.490;15.528;2023-02-01T10:39:20;7.73;;;2.40;;
12663;SDS011;6396;58.490;15.528;2023-02-01T10:41:47;6.70;;;3.00;;
12663;SDS011;6396;58.490;15.528;2023-02-01T10:44:22;10.40;;;3.17;;
12663;SDS011;6396;58.490;15.528;2023-02-01T10:46:53;8.97;;;2.93;;
12663;SDS011;6396;58.490;15.528;2023-02-01T10:49:24;7.00;;;2.70;;
12663;SDS011;6396;58.490;15.528;2023-02-01T10:52:01;7.20;;;3.10;;
12663;SDS011;6396;58.490;15.528;2023-02-01T10:54:38;12.03;;;3.63;;
12663;SDS011;6396;58.490;15.528;2023-02-01T10:57:07;10.63;;;2.83;;
12663;SDS011;6396;58.490;15.528;2023-02-01T10:59:40;12.70;;;3.23;;
12663;SDS011;6396;58.490;15.528;2023-02-01T11:02:15;9.50;;;3.43;;
12663;SDS011;6396;58.490;15.528;2023-02-01T11:04:46;7.70;;;2.90;;
12663;SDS011;6396;58.490;15.528;2023-02-01T11:07:16;10.57;;;3.73;;
12663;SDS011;6396;58.490;15.528;2023-02-01T11:09:48;12.57;;;3.50;;
12663;SDS011;6396;58.490;15.528;2023-02-01T11:12:23;13.23;;;4.97;;
12663;SDS011;6396;58.490;15.528;2023-02-01T11:15:03;8.63;;;4.33;;
12663;SDS011;6396;58.490;15.528;2023-02-01T11:17:43;9.53;;;3.20;;
12663;SDS011;6396;58.490;15.528;2023-02-01T11:20:18;8.13;;;2.33;;
12663;SDS011;6396;58.490;15.528;2023-02-01T11:22:58;14.10;;;2.63;;
12663;SDS011;6396;58.490;15.528;2023-02-01T11:25:48;8.43;;;3.73;;
12663;SDS011;6396;58.490;15.528;2023-02-01T11:28:34;8.00;;;2.93;;
12663;SDS011;6396;58.490;15.528;2023-02-01T11:31:06;7.30;;;2.60;;
12663;SDS011;6396;58.490;15.528;2023-02-01T11:33:45;5.23;;;2.37;;
12663;SDS011;6396;58.490;15.528;2023-02-01T11:36:17;7.57;;;2.17;;
12663;SDS011;6396;58.490;15.528;2023-02-01T11:39:10;7.60;;;2.37;;
12663;SDS011;6396;58.490;15.528;2023-02-01T11:41:57;9.53;;;2.80;;
12663;SDS011;6396;58.490;15.528;2023-02-01T11:44:30;5.40;;;2.57;;
12663;SDS011;6396;58.490;15.528;2023-02-01T11:47:18;5.97;;;2.37;;
12663;SDS011;6396;58.490;15.528;2023-02-01T11:49:52;4.57;;;2.20;;
12663;SDS011;6396;58.490;15.528;2023-02-01T11:55:32;4.87;;;2.33;;
12663;SDS011;6396;58.490;15.528;2023-02-01T11:58:26;3.83;;;2.20;;
12663;SDS011;6396;58.490;15.528;2023-02-01T12:01:24;3.80;;;2.50;;
12663;SDS011;6396;58.490;15.528;2023-02-01T12:10:50;4.77;;;2.23;;
12663;SDS011;6396;58.490;15.528;2023-02-01T12:13:46;3.77;;;2.30;;
12663;SDS011;6396;58.490;15.528;2023-02-01T12:16:32;5.67;;;2.47;;
12663;SDS011;6396;58.490;15.528;2023-02-01T12:19:11;4.30;;;2.20;;
12663;SDS011;6396;58.490;15.528;2023-02-01T12:21:59;5.20;;;2.57;;
12663;SDS011;6396;58.490;15.528;2023-02-01T12:24:46;2.57;;;2.17;;
12663;SDS011;6396;58.490;15.528;2023-02-01T12:31:03;3.60;;;2.10;;
12663;SDS011;6396;58.490;15.528;2023-02-01T12:33:55;6.27;;;2.10;;
12663;SDS011;6396;58.490;15.528;2023-02-01T12:36:50;2.23;;;1.80;;
12663;SDS011;6396;58.490;15.528;2023-02-01T12:39:24;3.70;;;2.13;;
12663;SDS011;6396;58.490;15.528;2023-02-01T12:41:58;3.80;;;2.37;;
12663;SDS011;6396;58.490;15.528;2023-02-01T12:44:37;3.87;;;1.87;;
12663;SDS011;6396;58.490;15.528;2023-02-01T12:47:12;1.83;;;1.73;;
12663;SDS011;6396;58.490;15.528;2023-02-01T12:49:48;2.53;;;1.73;;
12663;SDS011;6396;58.490;15.528;2023-02-01T12:52:23;2.40;;;1.50;;
12663;SDS011;6396;58.490;15.528;2023-02-01T12:55:01;3.90;;;1.93;;
12663;SDS011;6396;58.490;15.528;2023-02-01T12:57:34;2.47;;;1.60;;
12663;SDS011;6396;58.490;15.528;2023-02-01T13:00:12;2.73;;;1.90;;
12663;SDS011;6396;58.490;15.528;2023-02-01T13:02:52;2.03;;;1.53;;
12663;SDS011;6396;58.490;15.528;2023-02-01T13:05:27;2.00;;;1.47;;
12663;SDS011;6396;58.490;15.528;2023-02-01T13:07:59;4.70;;;1.77;;
12663;SDS011;6396;58.490;15.528;2023-02-01T13:10:32;2.40;;;1.67;;
12663;SDS011;6396;58.490;15.528;2023-02-01T13:13:03;3.90;;;1.43;;
12663;SDS011;6396;58.490;15.528;2023-02-01T13:15:39;2.43;;;1.60;;
12663;SDS011;6396;58.490;15.528;2023-02-01T13:18:11;3.33;;;1.97;;
12663;SDS011;6396;58.490;15.528;2023-02-01T13:20:45;3.73;;;2.10;;
12663;SDS011;6396;58.490;15.528;2023-02-01T13:23:18;3.03;;;1.70;;
12663;SDS011;6396;58.490;15.528;2023-02-01T13:25:52;3.60;;;1.80;;
12663;SDS011;6396;58.490;15.528;2023-02-01T13:28:23;2.03;;;1.77;;
12663;SDS011;6396;58.490;15.528;2023-02-01T13:31:03;3.20;;;1.90;;
12663;SDS011;6396;58.490;15.528;2023-02-01T13:33:47;1.80;;;1.57;;
12663;SDS011;6396;58.490;15.528;2023-02-01T13:39:34;2.03;;;1.60;;
12663;SDS011;6396;58.490;15.528;2023-02-01T13:42:13;2.30;;;1.50;;
12663;SDS011;6396;58.490;15.528;2023-02-01T13:44:44;1.87;;;1.60;;
12663;SDS011;6396;58.490;15.528;2023-02-01T13:47:18;1.83;;;1.40;;
12663;SDS011;6396;58.490;15.528;2023-02-01T13:49:49;1.37;;;1.20;;
12663;SDS011;6396;58.490;15.528;2023-02-01T13:52:26;1.63;;;1.30;;
12663;SDS011;6396;58.490;15.528;2023-02-01T13:55:03;1.40;;;1.30;;
12663;SDS011;6396;58.490;15.528;2023-02-01T13:57:42;1.10;;;1.00;;
12663;SDS011;6396;58.490;15.528;2023-02-01T14:00:23;1.30;;;1.20;;
12663;SDS011;6396;58.490;15.528;2023-02-01T14:11:57;3.23;;;1.50;;
12663;SDS011;6396;58.490;15.528;2023-02-01T14:23:14;1.33;;;1.03;;
12663;SDS011;6396;58.490;15.528;2023-02-01T14:25:43;0.90;;;0.90;;
12663;SDS011;6396;58.490;15.528;2023-02-01T14:28:12;2.00;;;1.20;;
12663;SDS011;6396;58.490;15.528;2023-02-01T14:30:49;1.10;;;1.00;;
12663;SDS011;6396;58.490;15.528;2023-02-01T14:33:21;1.27;;;0.80;;
12663;SDS011;6396;58.490;15.528;2023-02-01T14:38:47;0.80;;;0.70;;
12663;SDS011;6396;58.490;15.528;2023-02-01T14:41:31;1.10;;;0.80;;
12663;SDS011;6396;58.490;15.528;2023-02-01T14:44:22;0.87;;;0.77;;
12663;SDS011;6396;58.490;15.528;2023-02-01T14:47:08;1.17;;;1.07;;
12663;SDS011;6396;58.490;15.528;2023-02-01T14:49:53;1.00;;;0.87;;
12663;SDS011;6396;58.490;15.528;2023-02-01T14:52:34;0.90;;;0.80;;
12663;SDS011;6396;58.490;15.528;2023-02-01T14:55:09;0.90;;;0.90;;
12663;SDS011;6396;58.490;15.528;2023-02-01T14:57:40;1.10;;;1.00;;
12663;SDS011;6396;58.490;15.528;2023-02-01T15:02:56;0.80;;;0.80;;
12663;SDS011;6396;58.490;15.528;2023-02-01T15:05:50;0.97;;;0.97;;
12663;SDS011;6396;58.490;15.528;2023-02-01T15:08:24;1.17;;;1.00;;
12663;SDS011;6396;58.490;15.528;2023-02-01T15:10:54;1.27;;;1.10;;
12663;SDS011;6396;58.490;15.528;2023-02-01T15:13:24;1.33;;;1.00;;
12663;SDS011;6396;58.490;15.528;2023-02-01T15:16:03;1.20;;;1.10;;
12663;SDS011;6396;58.490;15.528;2023-02-01T15:18:31;1.50;;;1.40;;
12663;SDS011;6396;58.490;15.528;2023-02-01T15:20:58;2.07;;;1.73;;
12663;SDS011;6396;58.490;15.528;2023-02-01T15:23:28;2.13;;;1.30;;
12663;SDS011;6396;58.490;15.528;2023-02-01T15:25:55;1.53;;;1.43;;
12663;SDS011;6396;58.490;15.528;2023-02-01T15:28:23;1.60;;;1.47;;
12663;SDS011;6396;58.490;15.528;2023-02-01T15:30:54;1.90;;;1.70;;
12663;SDS011;6396;58.490;15.528;2023-02-01T15:33:23;1.80;;;1.70;;
12663;SDS011;6396;58.490;15.528;2023-02-01T15:35:51;1.80;;;1.63;;
12663;SDS011;6396;58.490;15.528;2023-02-01T15:38:20;2.30;;;1.90;;
12663;SDS011;6396;58.490;15.528;2023-02-01T15:40:57;2.37;;;1.70;;
12663;SDS011;6396;58.490;15.528;2023-02-01T15:43:28;1.80;;;1.70;;
12663;SDS011;6396;58.490;15.528;2023-02-01T15:45:59;2.20;;;1.87;;
12663;SDS011;6396;58.490;15.528;2023-02-01T15:48:30;2.57;;;2.37;;
12663;SDS011;6396;58.490;15.528;2023-02-01T15:51:01;2.53;;;2.33;;
12663;SDS011;6396;58.490;15.528;2023-02-01T15:53:30;2.67;;;2.47;;
12663;SDS011;6396;58.490;15.528;2023-02-01T15:56:07;2.70;;;2.40;;
12663;SDS011;6396;58.490;15.528;2023-02-01T15:58:41;2.43;;;2.23;;
12663;SDS011;6396;58.490;15.528;2023-02-01T16:01:25;2.30;;;2.07;;
12663;SDS011;6396;58.490;15.528;2023-02-01T16:04:12;2.17;;;1.90;;
12663;SDS011;6396;58.490;15.528;2023-02-01T16:06:47;3.60;;;3.20;;
12663;SDS011;6396;58.490;15.528;2023-02-01T16:09:18;3.57;;;2.80;;
12663;SDS011;6396;58.490;15.528;2023-02-01T16:14:53;2.67;;;2.30;;
12663;SDS011;6396;58.490;15.528;2023-02-01T16:17:24;3.07;;;2.20;;
12663;SDS011;6396;58.490;15.528;2023-02-01T16:19:51;3.70;;;2.30;;
12663;SDS011;6396;58.490;15.528;2023-02-01T16:22:18;3.57;;;2.30;;
12663;SDS011;6396;58.490;15.528;2023-02-01T16:24:45;2.10;;;1.90;;
12663;SDS011;6396;58.490;15.528;2023-02-01T16:27:12;2.10;;;1.90;;
12663;SDS011;6396;58.490;15.528;2023-02-01T16:29:41;2.10;;;1.80;;
12663;SDS011;6396;58.490;15.528;2023-02-01T16:32:15;2.37;;;2.17;;
12663;SDS011;6396;58.490;15.528;2023-02-01T16:34:44;2.20;;;2.00;;
12663;SDS011;6396;58.490;15.528;2023-02-01T16:37:12;2.13;;;1.80;;
12663;SDS011;6396;58.490;15.528;2023-02-01T16:39:40;2.03;;;1.83;;
12663;SDS011;6396;58.490;15.528;2023-02-01T16:42:09;2.00;;;1.80;;
12663;SDS011;6396;58.490;15.528;2023-02-01T16:44:42;1.83;;;1.70;;
12663;SDS011;6396;58.490;15.528;2023-02-01T16:47:11;1.87;;;1.67;;
12663;SDS011;6396;58.490;15.528;2023-02-01T16:49:41;2.40;;;1.90;;
12663;SDS011;6396;58.490;15.528;2023-02-01T16:52:11;2.30;;;2.10;;
12663;SDS011;6396;58.490;15.528;2023-02-01T16:54:40;2.03;;;1.80;;
12663;SDS011;6396;58.490;15.528;2023-02-01T16:57:10;4.13;;;2.10;;
12663;SDS011;6396;58.490;15.528;2023-02-01T16:59:38;2.90;;;2.23;;
12663;SDS011;6396;58.490;15.528;2023-02-01T17:02:08;1.80;;;1.70;;
12663;SDS011;6396;58.490;15.528;2023-02-01T17:04:38;3.33;;;2.20;;
12663;SDS011;6396;58.490;15.528;2023-02-01T17:07:05;2.43;;;2.00;;
12663;SDS011;6396;58.490;15.528;2023-02-01T17:09:34;2.27;;;2.00;;
12663;SDS011;6396;58.490;15.528;2023-02-01T17:12:01;3.57;;;1.80;;
12663;SDS011;6396;58.490;15.528;2023-02-01T17:14:29;2.53;;;2.30;;
12663;SDS011;6396;58.490;15.528;2023-02-01T17:16:57;2.80;;;2.20;;
12663;SDS011;6396;58.490;15.528;2023-02-01T17:19:27;3.23;;;2.10;;
12663;SDS011;6396;58.490;15.528;2023-02-01T17:21:55;3.73;;;2.20;;
12663;SDS011;6396;58.490;15.528;2023-02-01T17:24:25;2.87;;;2.30;;
12663;SDS011;6396;58.490;15.528;2023-02-01T17:27:06;3.33;;;1.93;;
12663;SDS011;6396;58.490;15.528;2023-02-01T17:29:32;4.27;;;2.03;;
12663;SDS011;6396;58.490;15.528;2023-02-01T17:31:59;3.87;;;2.30;;
12663;SDS011;6396;58.490;15.528;2023-02-01T17:34:28;2.37;;;2.10;;
12663;SDS011;6396;58.490;15.528;2023-02-01T17:36:54;2.47;;;2.27;;
12663;SDS011;6396;58.490;15.528;2023-02-01T17:39:21;2.97;;;2.50;;
12663;SDS011;6396;58.490;15.528;2023-02-01T17:42:08;3.40;;;2.47;;
12663;SDS011;6396;58.490;15.528;2023-02-01T17:44:36;3.60;;;2.47;;
12663;SDS011;6396;58.490;15.528;2023-02-01T17:47:04;3.87;;;2.47;;
12663;SDS011;6396;58.490;15.528;2023-02-01T17:49:32;3.73;;;2.80;;
12663;SDS011;6396;58.490;15.528;2023-02-01T17:52:00;3.60;;;2.77;;
12663;SDS011;6396;58.490;15.528;2023-02-01T17:54:27;3.87;;;2.57;;
12663;SDS011;6396;58.490;15.528;2023-02-01T17:56:54;3.00;;;2.70;;
12663;SDS011;6396;58.490;15.528;2023-02-01T17:59:24;6.23;;;3.40;;
12663;SDS011;6396;58.490;15.528;2023-02-01T18:01:51;5.53;;;3.77;;
12663;SDS011;6396;58.490;15.528;2023-02-01T18:04:20;5.57;;;3.70;;
12663;SDS011;6396;58.490;15.528;2023-02-01T18:09:39;6.83;;;3.90;;